createdAt,value
2017-07-21T00:00:03.278Z,99.99
2017-07-21T00:01:03.701Z,99.99
2017-07-21T00:02:03.197Z,99.99
2017-07-21T00:03:02.850Z,99.99
2017-07-21T00:04:02.849Z,99.99
2017-07-21T00:05:03.191Z,99.99
2017-07-21T00:06:03.180Z,99.99
2017-07-21T00:07:03.165Z,99.99
2017-07-21T00:08:03.165Z,99.99
2017-07-21T00:09:03.152Z,99.99
2017-07-21T00:10:03.605Z,99.99
2017-07-21T00:11:03.500Z,99.99
2017-07-21T00:12:03.143Z,99.99
2017-07-21T00:13:03.143Z,99.99
2017-07-21T00:14:03.139Z,99.99
2017-07-21T00:15:03.132Z,99.99
2017-07-21T00:16:03.107Z,99.99
2017-07-21T00:17:03.610Z,99.99
2017-07-21T00:18:03.148Z,99.99
2017-07-21T00:19:03.125Z,99.99
2017-07-21T00:20:03.225Z,99.99
2017-07-21T00:21:03.603Z,99.99
2017-07-21T00:22:03.227Z,99.99
2017-07-21T00:23:03.135Z,99.99
2017-07-21T00:24:03.108Z,99.99
2017-07-21T00:25:03.104Z,99.99
2017-07-21T00:26:03.110Z,99.99
2017-07-21T00:27:03.339Z,99.99
2017-07-21T00:28:03.669Z,99.99
2017-07-21T00:29:02.937Z,99.99
2017-07-21T00:30:03.091Z,99.99
2017-07-21T00:31:03.083Z,99.99
2017-07-21T00:32:03.087Z,99.99
2017-07-21T00:33:03.078Z,99.99
2017-07-21T00:34:02.752Z,99.99
2017-07-21T00:35:03.613Z,99.99
2017-07-21T00:36:03.567Z,99.99
2017-07-21T00:37:03.078Z,99.99
2017-07-21T00:38:03.061Z,99.99
2017-07-21T00:39:03.058Z,99.99
2017-07-21T00:40:03.063Z,99.99
2017-07-21T00:41:02.730Z,99.99
2017-07-21T00:42:02.730Z,99.99
2017-07-21T00:43:03.553Z,99.99
2017-07-21T00:44:03.137Z,99.99
2017-07-21T00:45:02.889Z,99.99
2017-07-21T00:46:03.031Z,99.99
2017-07-21T00:47:02.709Z,99.99
2017-07-21T00:48:02.708Z,99.99
2017-07-21T00:49:03.023Z,99.99
2017-07-21T00:50:03.418Z,99.99
2017-07-21T00:51:03.455Z,99.99
2017-07-21T00:52:02.742Z,99.99
2017-07-21T00:53:02.721Z,99.99
2017-07-21T00:54:03.023Z,99.99
2017-07-21T00:55:03.025Z,99.99
2017-07-21T00:56:03.001Z,99.99
2017-07-21T00:57:03.015Z,99.99
2017-07-21T00:58:02.676Z,99.99
2017-07-21T00:59:03.501Z,99.99
2017-07-21T01:00:03.010Z,99.99
2017-07-21T01:01:02.984Z,99.99
2017-07-21T01:02:02.980Z,99.99
2017-07-21T01:03:03.071Z,99.99
2017-07-21T01:04:03.034Z,99.99
2017-07-21T01:05:02.992Z,99.99
2017-07-21T01:06:02.990Z,99.99
2017-07-21T01:07:02.648Z,99.99
2017-07-21T01:08:02.641Z,99.99
2017-07-21T01:09:03.008Z,99.99
2017-07-21T01:10:03.576Z,99.99
2017-07-21T01:11:03.084Z,99.99
2017-07-21T01:12:02.946Z,99.99
2017-07-21T01:13:03.635Z,99.99
2017-07-21T01:14:03.013Z,99.99
2017-07-21T01:15:02.936Z,99.99
2017-07-21T01:16:02.935Z,99.99
2017-07-21T01:17:02.952Z,99.99
2017-07-21T01:18:02.944Z,99.99
2017-07-21T01:19:02.925Z,99.99
2017-07-21T01:20:02.999Z,99.99
2017-07-21T01:21:03.314Z,99.99
2017-07-21T01:22:02.595Z,99.99
2017-07-21T01:23:02.926Z,99.99
2017-07-21T01:24:02.906Z,99.99
2017-07-21T01:25:02.906Z,99.99
2017-07-21T01:26:02.900Z,99.99
2017-07-21T01:27:03.360Z,99.99
2017-07-21T01:28:03.415Z,99.99
2017-07-21T01:29:03.395Z,99.99
2017-07-21T01:30:02.885Z,99.99
2017-07-21T01:31:02.882Z,99.99
2017-07-21T01:32:02.561Z,99.99
2017-07-21T01:33:02.553Z,99.99
2017-07-21T01:34:02.875Z,99.99
2017-07-21T01:35:03.301Z,99.99
2017-07-21T01:36:02.546Z,99.99
2017-07-21T01:37:03.075Z,99.99
2017-07-21T01:38:02.858Z,99.99
2017-07-21T01:39:02.856Z,99.99
2017-07-21T01:40:02.902Z,99.99
2017-07-21T01:41:02.846Z,99.99
2017-07-21T01:42:02.521Z,99.99
2017-07-21T01:43:02.866Z,99.99
2017-07-21T01:44:02.845Z,99.99
2017-07-21T01:45:02.836Z,99.99
2017-07-21T01:46:02.850Z,99.99
2017-07-21T01:47:02.504Z,99.99
2017-07-21T01:48:02.832Z,99.99
2017-07-21T01:49:02.499Z,99.99
2017-07-21T01:50:02.820Z,99.99
2017-07-21T01:51:02.492Z,99.99
2017-07-21T01:52:02.810Z,99.99
2017-07-21T01:53:02.828Z,99.99
2017-07-21T01:54:02.809Z,99.99
2017-07-21T01:55:02.480Z,99.99
2017-07-21T01:56:02.797Z,99.99
2017-07-21T01:57:02.797Z,99.99
2017-07-21T01:58:02.496Z,99.99
2017-07-21T01:59:02.462Z,99.99
2017-07-21T02:00:02.787Z,99.99
2017-07-21T02:01:02.777Z,99.99
2017-07-21T02:02:02.454Z,99.99
2017-07-21T02:03:02.768Z,99.99
2017-07-21T02:04:02.763Z,99.99
2017-07-21T02:05:02.760Z,99.99
2017-07-21T02:06:02.852Z,99.99
2017-07-21T02:07:02.754Z,99.99
2017-07-21T02:08:02.751Z,99.99
2017-07-21T02:09:02.449Z,99.99
2017-07-21T02:10:02.763Z,99.99
2017-07-21T02:11:02.767Z,99.99
2017-07-21T02:12:02.736Z,99.99
2017-07-21T02:13:02.738Z,99.99
2017-07-21T02:14:02.747Z,99.99
2017-07-21T02:15:02.411Z,99.99
2017-07-21T02:16:02.724Z,99.99
2017-07-21T02:17:02.731Z,99.99
2017-07-21T02:18:02.712Z,99.99
2017-07-21T02:19:02.393Z,99.99
2017-07-21T02:20:02.729Z,99.99
2017-07-21T02:21:02.705Z,99.99
2017-07-21T02:22:02.732Z,99.99
2017-07-21T02:23:02.378Z,99.99
2017-07-21T02:24:02.702Z,99.99
2017-07-21T02:25:02.688Z,99.99
2017-07-21T02:26:02.692Z,99.99
2017-07-21T02:27:02.695Z,99.99
2017-07-21T02:28:02.679Z,99.99
2017-07-21T02:29:02.674Z,99.99
2017-07-21T02:30:02.358Z,99.99
2017-07-21T02:31:02.682Z,99.99
2017-07-21T02:32:02.686Z,99.99
2017-07-21T02:33:02.663Z,99.99
2017-07-21T02:34:02.681Z,99.99
2017-07-21T02:35:02.661Z,99.99
2017-07-21T02:36:02.346Z,99.99
2017-07-21T02:37:02.647Z,99.99
2017-07-21T02:38:02.655Z,99.99
2017-07-21T02:39:02.643Z,99.99
2017-07-21T02:40:02.328Z,99.99
2017-07-21T02:41:02.641Z,99.99
2017-07-21T02:42:02.318Z,99.99
2017-07-21T02:43:02.308Z,99.99
2017-07-21T02:44:02.301Z,99.99
2017-07-21T02:45:02.620Z,99.99
2017-07-21T02:46:02.618Z,99.99
2017-07-21T02:47:02.295Z,99.99
2017-07-21T02:48:02.611Z,99.99
2017-07-21T02:49:02.628Z,99.99
2017-07-21T02:50:02.604Z,99.99
2017-07-21T02:51:02.600Z,99.99
2017-07-21T02:52:02.274Z,99.99
2017-07-21T02:53:02.594Z,99.99
2017-07-21T02:54:02.599Z,99.99
2017-07-21T02:55:02.585Z,99.99
2017-07-21T02:56:02.581Z,99.99
2017-07-21T02:57:02.259Z,99.99
2017-07-21T02:58:02.573Z,99.99
2017-07-21T02:59:02.575Z,99.99
2017-07-21T03:00:02.566Z,99.99
2017-07-21T03:01:02.563Z,99.99
2017-07-21T03:02:02.239Z,99.99
2017-07-21T03:03:02.558Z,99.99
2017-07-21T03:04:02.557Z,99.99
2017-07-21T03:05:02.230Z,99.99
2017-07-21T03:06:02.548Z,99.99
2017-07-21T03:07:02.546Z,99.99
2017-07-21T03:08:02.220Z,99.99
2017-07-21T03:09:02.216Z,99.99
2017-07-21T03:10:02.554Z,99.99
2017-07-21T03:11:02.535Z,99.99
2017-07-21T03:12:02.526Z,99.99
2017-07-21T03:13:02.209Z,99.99
2017-07-21T03:14:02.518Z,99.99
2017-07-21T03:15:02.522Z,99.99
2017-07-21T03:16:02.192Z,99.99
2017-07-21T03:17:02.512Z,99.99
2017-07-21T03:18:02.507Z,99.99
2017-07-21T03:19:02.508Z,99.99
2017-07-21T03:20:02.516Z,99.99
2017-07-21T03:21:02.495Z,99.99
2017-07-21T03:22:02.496Z,99.99
2017-07-21T03:23:02.498Z,99.99
2017-07-21T03:24:02.509Z,99.99
2017-07-21T03:25:02.482Z,99.99
2017-07-21T03:26:02.485Z,99.99
2017-07-21T03:27:02.484Z,99.99
2017-07-21T03:28:02.477Z,99.99
2017-07-21T03:29:02.476Z,99.99
2017-07-21T03:30:02.164Z,99.99
2017-07-21T03:31:02.463Z,99.99
2017-07-21T03:32:02.461Z,99.99
2017-07-21T03:33:02.454Z,99.99
2017-07-21T03:34:02.131Z,99.99
2017-07-21T03:35:02.456Z,99.99
2017-07-21T03:36:02.475Z,99.99
2017-07-21T03:37:02.438Z,99.99
2017-07-21T03:38:02.434Z,99.99
2017-07-21T03:39:02.460Z,99.99
2017-07-21T03:40:02.115Z,99.99
2017-07-21T03:41:02.103Z,99.99
2017-07-21T03:42:02.427Z,99.99
2017-07-21T03:43:02.471Z,99.99
2017-07-21T03:44:02.125Z,99.99
2017-07-21T03:45:02.417Z,99.99
2017-07-21T03:46:02.088Z,99.99
2017-07-21T03:47:02.427Z,99.99
2017-07-21T03:48:02.397Z,99.99
2017-07-21T03:49:02.073Z,99.99
2017-07-21T03:50:02.389Z,99.99
2017-07-21T03:51:02.395Z,99.99
2017-07-21T03:52:02.062Z,99.99
2017-07-21T03:53:02.063Z,99.99
2017-07-21T03:54:02.072Z,99.99
2017-07-21T03:55:02.369Z,99.99
2017-07-21T03:56:02.049Z,99.99
2017-07-21T03:57:02.364Z,99.99
2017-07-21T03:58:02.061Z,99.99
2017-07-21T03:59:02.364Z,99.99
2017-07-21T04:00:02.031Z,99.99
2017-07-21T04:01:02.373Z,99.99
2017-07-21T04:02:02.025Z,99.99
2017-07-21T04:03:02.020Z,99.99
2017-07-21T04:04:02.369Z,99.99
2017-07-21T04:05:02.337Z,99.99
2017-07-21T04:06:02.334Z,99.99
2017-07-21T04:07:02.007Z,99.99
2017-07-21T04:08:02.325Z,99.99
2017-07-21T04:09:02.320Z,99.99
2017-07-21T04:10:02.001Z,99.99
2017-07-21T04:11:01.991Z,99.99
2017-07-21T04:12:02.326Z,99.99
2017-07-21T04:13:02.323Z,99.99
2017-07-21T04:14:01.986Z,99.99
2017-07-21T04:15:02.312Z,99.99
2017-07-21T04:16:02.290Z,99.99
2017-07-21T04:17:02.314Z,99.99
2017-07-21T04:18:02.288Z,99.99
2017-07-21T04:19:02.281Z,99.99
2017-07-21T04:20:01.960Z,99.99
2017-07-21T04:21:02.278Z,99.99
2017-07-21T04:22:01.958Z,99.99
2017-07-21T04:23:02.267Z,99.99
2017-07-21T04:24:01.948Z,99.99
2017-07-21T04:25:02.265Z,99.99
2017-07-21T04:26:02.253Z,99.99
2017-07-21T04:27:02.256Z,99.99
2017-07-21T04:28:02.246Z,99.99
2017-07-21T04:29:02.253Z,99.99
2017-07-21T04:30:02.241Z,99.99
2017-07-21T04:31:02.235Z,99.99
2017-07-21T04:32:02.234Z,99.99
2017-07-21T04:33:02.230Z,99.99
2017-07-21T04:34:02.232Z,99.99
2017-07-21T04:35:02.224Z,99.99
2017-07-21T04:36:02.229Z,99.99
2017-07-21T04:37:02.219Z,99.99
2017-07-21T04:38:02.210Z,99.99
2017-07-21T04:39:02.207Z,99.99
2017-07-21T04:40:02.208Z,99.99
2017-07-21T04:41:02.203Z,99.99
2017-07-21T04:42:01.911Z,99.99
2017-07-21T04:43:02.198Z,99.99
2017-07-21T04:44:02.193Z,99.99
2017-07-21T04:45:02.193Z,99.99
2017-07-21T04:46:02.189Z,99.99
2017-07-21T04:47:02.182Z,99.99
2017-07-21T04:48:02.184Z,99.99
2017-07-21T04:49:02.172Z,99.99
2017-07-21T04:50:02.171Z,99.99
2017-07-21T04:51:02.170Z,99.99
2017-07-21T04:52:02.169Z,99.99
2017-07-21T04:53:02.159Z,99.99
2017-07-21T04:54:02.155Z,99.99
2017-07-21T04:55:01.837Z,99.99
2017-07-21T04:56:02.152Z,99.99
2017-07-21T04:57:02.154Z,99.99
2017-07-21T04:58:02.151Z,99.99
2017-07-21T04:59:01.821Z,99.99
2017-07-21T05:00:01.816Z,99.99
2017-07-21T05:01:01.816Z,99.99
2017-07-21T05:02:02.133Z,99.99
2017-07-21T05:03:01.809Z,99.99
2017-07-21T05:04:02.125Z,99.99
2017-07-21T05:05:02.122Z,99.99
2017-07-21T05:06:02.121Z,99.99
2017-07-21T05:07:02.117Z,99.99
2017-07-21T05:08:02.120Z,99.99
2017-07-21T05:09:02.125Z,99.99
2017-07-21T05:10:02.111Z,99.99
2017-07-21T05:11:01.788Z,99.99
2017-07-21T05:12:01.790Z,99.99
2017-07-21T05:13:02.099Z,99.99
2017-07-21T05:14:02.100Z,99.99
2017-07-21T05:15:01.776Z,99.99
2017-07-21T05:16:01.782Z,99.99
2017-07-21T05:17:02.088Z,99.99
2017-07-21T05:18:02.088Z,99.99
2017-07-21T05:19:02.104Z,99.99
2017-07-21T05:20:02.095Z,99.99
2017-07-21T05:21:02.083Z,99.99
2017-07-21T05:22:01.760Z,99.99
2017-07-21T05:23:02.074Z,99.99
2017-07-21T05:24:02.094Z,99.99
2017-07-21T05:25:02.072Z,99.99
2017-07-21T05:26:02.071Z,99.99
2017-07-21T05:27:02.064Z,99.99
2017-07-21T05:28:02.065Z,99.99
2017-07-21T05:29:02.066Z,99.99
2017-07-21T05:30:02.059Z,99.99
2017-07-21T05:31:02.096Z,99.99
2017-07-21T05:32:02.067Z,99.99
2017-07-21T05:33:02.077Z,99.99
2017-07-21T05:34:02.071Z,99.99
2017-07-21T05:35:02.049Z,99.99
2017-07-21T05:36:02.052Z,99.99
2017-07-21T05:37:02.047Z,99.99
2017-07-21T05:38:01.722Z,99.99
2017-07-21T05:39:02.063Z,99.99
2017-07-21T05:40:02.042Z,99.99
2017-07-21T05:41:01.716Z,99.99
2017-07-21T05:42:02.035Z,99.99
2017-07-21T05:43:02.049Z,99.99
2017-07-21T05:44:02.054Z,99.99
2017-07-21T05:45:02.030Z,99.99
2017-07-21T05:46:01.732Z,99.99
2017-07-21T05:47:02.040Z,99.99
2017-07-21T05:48:02.031Z,99.99
2017-07-21T05:49:02.028Z,99.99
2017-07-21T05:50:02.020Z,99.99
2017-07-21T05:51:02.017Z,99.99
2017-07-21T05:52:02.015Z,99.99
2017-07-21T05:53:02.018Z,99.99
2017-07-21T05:54:02.039Z,99.99
2017-07-21T05:55:02.008Z,99.99
2017-07-21T05:56:01.685Z,99.99
2017-07-21T05:57:02.005Z,99.99
2017-07-21T05:58:02.005Z,99.99
2017-07-21T05:59:02.002Z,99.99
2017-07-21T06:00:02.000Z,99.99
2017-07-21T06:01:01.998Z,99.99
2017-07-21T06:02:01.999Z,99.99
2017-07-21T06:03:02.004Z,99.99
2017-07-21T06:04:01.991Z,99.99
2017-07-21T06:05:01.666Z,99.99
2017-07-21T06:06:01.987Z,99.99
2017-07-21T06:07:01.991Z,99.99
2017-07-21T06:08:01.661Z,99.99
2017-07-21T06:09:01.660Z,99.99
2017-07-21T06:10:01.978Z,99.99
2017-07-21T06:11:01.998Z,99.99
2017-07-21T06:12:01.976Z,99.99
2017-07-21T06:13:01.974Z,99.99
2017-07-21T06:14:01.973Z,99.99
2017-07-21T06:15:01.975Z,99.99
2017-07-21T06:16:01.650Z,99.99
2017-07-21T06:17:01.973Z,99.99
2017-07-21T06:18:01.980Z,99.99
2017-07-21T06:19:01.653Z,99.99
2017-07-21T06:20:01.988Z,99.99
2017-07-21T06:21:01.966Z,99.99
2017-07-21T06:22:01.963Z,99.99
2017-07-21T06:23:01.958Z,99.99
2017-07-21T06:24:01.639Z,99.99
2017-07-21T06:25:01.960Z,99.99
2017-07-21T06:26:01.635Z,99.99
2017-07-21T06:27:01.971Z,99.99
2017-07-21T06:28:01.637Z,99.98
2017-07-21T06:29:01.955Z,99.21
2017-07-21T06:30:01.658Z,97.04
2017-07-21T06:31:01.958Z,97.91
2017-07-21T06:32:01.950Z,98.68
2017-07-21T06:33:01.962Z,98.29
2017-07-21T06:34:01.970Z,97.19
2017-07-21T06:35:01.628Z,94.49
2017-07-21T06:36:01.948Z,94.68
2017-07-21T06:37:01.950Z,93.53
2017-07-21T06:38:01.996Z,91.51
2017-07-21T06:39:01.944Z,91.7
2017-07-21T06:40:01.958Z,91.7
2017-07-21T06:41:01.962Z,91.8
2017-07-21T06:42:01.945Z,91.8
2017-07-21T06:43:01.956Z,91.7
2017-07-21T06:44:01.966Z,91.31
2017-07-21T06:45:01.943Z,91.75
2017-07-21T06:46:01.942Z,91.94
2017-07-21T06:47:01.942Z,92.18
2017-07-21T06:48:01.619Z,92.38
2017-07-21T06:49:01.941Z,91.99
2017-07-21T06:50:01.973Z,91.8
2017-07-21T06:51:01.644Z,90.83
2017-07-21T06:52:01.619Z,89.1
2017-07-21T06:53:01.649Z,88.28
2017-07-21T06:54:01.941Z,88.18
2017-07-21T06:55:01.949Z,87.7
2017-07-21T06:56:01.959Z,87.7
2017-07-21T06:57:01.665Z,88.09
2017-07-21T06:58:01.958Z,88.51
2017-07-21T06:59:01.941Z,89.05
2017-07-21T07:00:02.591Z,89.53
2017-07-21T07:01:01.619Z,88.85
2017-07-21T07:02:01.620Z,89.72
2017-07-21T07:03:01.939Z,89.92
2017-07-21T07:04:01.947Z,88.95
2017-07-21T07:05:01.940Z,89.53
2017-07-21T07:06:01.936Z,90.11
2017-07-21T07:07:01.620Z,90.11
2017-07-21T07:08:01.618Z,91.51
2017-07-21T07:09:01.956Z,88.53
2017-07-21T07:10:01.941Z,88.33
2017-07-21T07:11:01.945Z,89.1
2017-07-21T07:12:01.939Z,91.22
2017-07-21T07:13:01.618Z,89.39
2017-07-21T07:14:01.944Z,89.78
2017-07-21T07:15:01.942Z,90.73
2017-07-21T07:16:01.944Z,90.73
2017-07-21T07:17:01.942Z,89.24
2017-07-21T07:18:01.619Z,88.76
2017-07-21T07:19:01.620Z,85.67
2017-07-21T07:20:01.944Z,83.74
2017-07-21T07:21:01.964Z,82.82
2017-07-21T07:22:01.622Z,82.24
2017-07-21T07:23:01.629Z,82.05
2017-07-21T07:24:01.952Z,82.05
2017-07-21T07:25:01.645Z,83.3
2017-07-21T07:26:01.622Z,83.69
2017-07-21T07:27:01.629Z,76.4
2017-07-21T07:28:01.625Z,73.67
2017-07-21T07:29:01.948Z,70.07
2017-07-21T07:30:01.948Z,66.69
2017-07-21T07:31:01.650Z,63.75
2017-07-21T07:32:01.969Z,60.52
2017-07-21T07:33:01.956Z,59.97
2017-07-21T07:34:01.635Z,57.37
2017-07-21T07:35:01.957Z,54.9
2017-07-21T07:36:01.642Z,53.96
2017-07-21T07:37:01.642Z,50.48
2017-07-21T07:38:01.971Z,50.14
2017-07-21T07:39:01.671Z,50.16
2017-07-21T07:40:01.662Z,46.9
2017-07-21T07:41:01.981Z,47
2017-07-21T07:42:01.992Z,46.8
2017-07-21T07:43:01.991Z,45.05
2017-07-21T07:44:02.027Z,44.66
2017-07-21T07:45:01.679Z,44.58
2017-07-21T07:46:02.212Z,43.14
2017-07-21T07:47:02.014Z,43.26
2017-07-21T07:48:02.022Z,41.72
2017-07-21T07:49:01.703Z,40.55
2017-07-21T07:50:02.051Z,41.72
2017-07-21T07:51:01.717Z,43.07
2017-07-21T07:52:01.724Z,42.38
2017-07-21T07:53:02.077Z,43.36
2017-07-21T07:54:02.067Z,42.68
2017-07-21T07:55:02.073Z,41.8
2017-07-21T07:56:02.086Z,41.7
2017-07-21T07:57:02.077Z,41.8
2017-07-21T07:58:01.765Z,41.5
2017-07-21T07:59:02.099Z,42.07
2017-07-21T08:00:02.105Z,42.16
2017-07-21T08:01:01.784Z,42.26
2017-07-21T08:02:02.113Z,42.26
2017-07-21T08:03:02.120Z,42.44
2017-07-21T08:04:02.123Z,42.73
2017-07-21T08:05:01.814Z,43.37
2017-07-21T08:06:02.136Z,45.67
2017-07-21T08:07:02.145Z,47.86
2017-07-21T08:08:02.145Z,50.82
2017-07-21T08:09:02.176Z,54.66
2017-07-21T08:10:01.851Z,55.96
2017-07-21T08:11:02.173Z,58.23
2017-07-21T08:12:02.179Z,60.78
2017-07-21T08:13:02.175Z,61.72
2017-07-21T08:14:02.207Z,62.85
2017-07-21T08:15:01.878Z,63.6
2017-07-21T08:16:02.186Z,63.4
2017-07-21T08:17:01.871Z,62.7
2017-07-21T08:18:01.890Z,62.7
2017-07-21T08:19:01.890Z,62.4
2017-07-21T08:20:01.880Z,62.63
2017-07-21T08:21:01.885Z,62.53
2017-07-21T08:22:02.207Z,62.63
2017-07-21T08:23:02.212Z,62.15
2017-07-21T08:24:02.236Z,62.82
2017-07-21T08:25:02.219Z,64.37
2017-07-21T08:26:01.900Z,66.69
2017-07-21T08:27:01.902Z,65.92
2017-07-21T08:28:01.917Z,66.36
2017-07-21T08:29:01.907Z,66.66
2017-07-21T08:30:02.230Z,67.52
2017-07-21T08:31:02.247Z,68.49
2017-07-21T08:32:02.240Z,66.59
2017-07-21T08:33:01.919Z,66.11
2017-07-21T08:34:01.925Z,64.18
2017-07-21T08:35:02.247Z,64.08
2017-07-21T08:36:02.254Z,68.52
2017-07-21T08:37:02.253Z,68.17
2017-07-21T08:38:01.937Z,65.27
2017-07-21T08:39:02.256Z,65.27
2017-07-21T08:40:02.273Z,64.5
2017-07-21T08:41:01.941Z,63.82
2017-07-21T08:42:01.942Z,64.69
2017-07-21T08:43:01.945Z,64.85
2017-07-21T08:44:02.268Z,68.24
2017-07-21T08:45:01.951Z,69.3
2017-07-21T08:46:02.277Z,67.4
2017-07-21T08:47:02.280Z,65.95
2017-07-21T08:48:02.277Z,67.79
2017-07-21T08:49:02.285Z,65.17
2017-07-21T08:50:02.283Z,64.14
2017-07-21T08:51:02.287Z,64.69
2017-07-21T08:52:02.311Z,65.59
2017-07-21T08:53:02.291Z,62.88
2017-07-21T08:54:02.313Z,63.27
2017-07-21T08:55:01.977Z,64.62
2017-07-21T08:56:02.301Z,64.82
2017-07-21T08:57:02.307Z,63.66
2017-07-21T08:58:02.306Z,60.66
2017-07-21T08:59:02.319Z,60.63
2017-07-21T09:00:01.999Z,60.82
2017-07-21T09:01:02.338Z,63.53
2017-07-21T09:02:02.315Z,61.98
2017-07-21T09:03:02.315Z,61.21
2017-07-21T09:04:02.001Z,59.86
2017-07-21T09:05:02.322Z,62.95
2017-07-21T09:06:02.005Z,62.47
2017-07-21T09:07:02.327Z,62.21
2017-07-21T09:08:02.332Z,61.72
2017-07-21T09:09:02.339Z,61.66
2017-07-21T09:10:02.015Z,60.21
2017-07-21T09:11:02.017Z,59.91
2017-07-21T09:12:02.341Z,59.23
2017-07-21T09:13:02.029Z,58.3
2017-07-21T09:14:02.345Z,58.17
2017-07-21T09:15:02.030Z,62.92
2017-07-21T09:16:02.366Z,60.4
2017-07-21T09:17:02.356Z,60.01
2017-07-21T09:18:02.036Z,60.59
2017-07-21T09:19:02.042Z,58.75
2017-07-21T09:20:02.366Z,57.01
2017-07-21T09:21:02.376Z,57.88
2017-07-21T09:22:02.399Z,61.05
2017-07-21T09:23:02.051Z,60.37
2017-07-21T09:24:02.376Z,58.44
2017-07-21T09:25:02.385Z,59.89
2017-07-21T09:26:02.386Z,60.82
2017-07-21T09:27:02.384Z,58.98
2017-07-21T09:28:02.068Z,58.31
2017-07-21T09:29:02.408Z,58.5
2017-07-21T09:30:02.392Z,59.53
2017-07-21T09:31:02.396Z,58.57
2017-07-21T09:32:02.410Z,59.92
2017-07-21T09:33:02.399Z,59.92
2017-07-21T09:34:02.401Z,58.35
2017-07-21T09:35:02.405Z,57.77
2017-07-21T09:36:02.426Z,59.51
2017-07-21T09:37:02.087Z,60.06
2017-07-21T09:38:02.436Z,65.56
2017-07-21T09:39:02.431Z,66.78
2017-07-21T09:40:02.442Z,64.08
2017-07-21T09:41:02.415Z,61.47
2017-07-21T09:42:02.419Z,60.31
2017-07-21T09:43:02.429Z,62.54
2017-07-21T09:44:02.420Z,63.15
2017-07-21T09:45:02.428Z,65.01
2017-07-21T09:46:02.427Z,64.72
2017-07-21T09:47:02.429Z,64.76
2017-07-21T09:48:02.428Z,63.31
2017-07-21T09:49:02.463Z,62.95
2017-07-21T09:50:02.436Z,64.24
2017-07-21T09:51:02.115Z,61.24
2017-07-21T09:52:02.128Z,58.65
2017-07-21T09:53:02.441Z,57.11
2017-07-21T09:54:02.122Z,55.56
2017-07-21T09:55:02.443Z,52.75
2017-07-21T09:56:02.445Z,52.08
2017-07-21T09:57:02.453Z,49.85
2017-07-21T09:58:02.449Z,50.43
2017-07-21T09:59:02.454Z,53.91
2017-07-21T10:00:02.456Z,54.71
2017-07-21T10:01:02.469Z,52.58
2017-07-21T10:02:02.485Z,51.62
2017-07-21T10:03:02.486Z,51.32
2017-07-21T10:04:02.145Z,51.64
2017-07-21T10:05:02.470Z,51.54
2017-07-21T10:06:02.169Z,51.84
2017-07-21T10:07:02.475Z,52.15
2017-07-21T10:08:02.476Z,48.76
2017-07-21T10:09:02.479Z,48.27
2017-07-21T10:10:02.484Z,51.76
2017-07-21T10:11:02.490Z,55.44
2017-07-21T10:12:02.488Z,54.96
2017-07-21T10:13:02.491Z,51.57
2017-07-21T10:14:02.495Z,48.85
2017-07-21T10:15:02.496Z,47.6
2017-07-21T10:16:02.179Z,48.37
2017-07-21T10:17:02.504Z,46.92
2017-07-21T10:18:02.186Z,46.92
2017-07-21T10:19:02.526Z,47.67
2017-07-21T10:20:02.193Z,48.74
2017-07-21T10:21:02.513Z,48.93
2017-07-21T10:22:02.518Z,56.41
2017-07-21T10:23:02.527Z,50.79
2017-07-21T10:24:02.202Z,49.54
2017-07-21T10:25:02.532Z,50.31
2017-07-21T10:26:02.547Z,49.54
2017-07-21T10:27:02.546Z,50.41
2017-07-21T10:28:02.579Z,48.83
2017-07-21T10:29:02.218Z,48.93
2017-07-21T10:30:02.547Z,49.29
2017-07-21T10:31:02.548Z,49.97
2017-07-21T10:32:02.552Z,50.04
2017-07-21T10:33:02.553Z,53.04
2017-07-21T10:34:02.579Z,54.37
2017-07-21T10:35:02.561Z,53.79
2017-07-21T10:36:02.563Z,54.37
2017-07-21T10:37:02.565Z,51.86
2017-07-21T10:38:02.569Z,52.63
2017-07-21T10:39:02.576Z,52.89
2017-07-21T10:40:02.624Z,52.82
2017-07-21T10:41:02.577Z,54.37
2017-07-21T10:42:02.578Z,54.66
2017-07-21T10:43:02.601Z,55.92
2017-07-21T10:44:02.586Z,55.15
2017-07-21T10:45:02.586Z,52.17
2017-07-21T10:46:02.617Z,51.68
2017-07-21T10:47:02.273Z,50.72
2017-07-21T10:48:02.597Z,53.81
2017-07-21T10:49:02.279Z,58.56
2017-07-21T10:50:02.284Z,55.1
2017-07-21T10:51:02.614Z,50.45
2017-07-21T10:52:02.286Z,49.77
2017-07-21T10:53:02.615Z,50.35
2017-07-21T10:54:02.621Z,50.16
2017-07-21T10:55:02.619Z,52.1
2017-07-21T10:56:02.298Z,50.38
2017-07-21T10:57:02.625Z,50.67
2017-07-21T10:58:02.628Z,50.09
2017-07-21T10:59:02.631Z,52.25
2017-07-21T11:00:02.312Z,53.8
2017-07-21T11:01:02.638Z,51.31
2017-07-21T11:02:02.639Z,50.31
2017-07-21T11:03:02.321Z,51.67
2017-07-21T11:04:02.679Z,51.74
2017-07-21T11:05:02.661Z,52.68
2017-07-21T11:06:02.654Z,51.9
2017-07-21T11:07:02.656Z,50.52
2017-07-21T11:08:02.660Z,52.17
2017-07-21T11:09:02.671Z,53.63
2017-07-21T11:10:02.664Z,53.11
2017-07-21T11:11:02.667Z,54.88
2017-07-21T11:12:02.670Z,53.89
2017-07-21T11:13:02.674Z,53.79
2017-07-21T11:14:02.354Z,53.31
2017-07-21T11:15:02.360Z,52.92
2017-07-21T11:16:02.691Z,52.53
2017-07-21T11:17:02.690Z,52.53
2017-07-21T11:18:02.688Z,53.41
2017-07-21T11:19:02.391Z,53.89
2017-07-21T11:20:02.700Z,56.11
2017-07-21T11:21:02.707Z,53.89
2017-07-21T11:22:02.710Z,51.2
2017-07-21T11:23:02.703Z,51.28
2017-07-21T11:24:02.391Z,52.05
2017-07-21T11:25:02.708Z,52.73
2017-07-21T11:26:02.710Z,53.21
2017-07-21T11:27:02.716Z,52.53
2017-07-21T11:28:02.396Z,52.66
2017-07-21T11:29:02.776Z,53.89
2017-07-21T11:30:02.722Z,54.75
2017-07-21T11:31:02.422Z,54.49
2017-07-21T11:32:02.729Z,53.53
2017-07-21T11:33:02.433Z,53.33
2017-07-21T11:34:02.734Z,53.33
2017-07-21T11:35:02.738Z,54.49
2017-07-21T11:36:02.423Z,49.77
2017-07-21T11:37:02.748Z,50.26
2017-07-21T11:38:02.758Z,49.97
2017-07-21T11:39:02.766Z,48.42
2017-07-21T11:40:02.438Z,48.97
2017-07-21T11:41:02.791Z,49.85
2017-07-21T11:42:02.783Z,51.2
2017-07-21T11:43:02.782Z,50.62
2017-07-21T11:44:02.767Z,52.36
2017-07-21T11:45:02.771Z,51.32
2017-07-21T11:46:02.452Z,49.87
2017-07-21T11:47:02.792Z,48.71
2017-07-21T11:48:02.798Z,50.04
2017-07-21T11:49:02.789Z,50.04
2017-07-21T11:50:02.536Z,51.4
2017-07-21T11:51:02.787Z,51.68
2017-07-21T11:52:02.794Z,53.55
2017-07-21T11:53:02.793Z,52.39
2017-07-21T11:54:02.486Z,48.71
2017-07-21T11:55:02.812Z,49.1
2017-07-21T11:56:02.804Z,48.49
2017-07-21T11:57:02.806Z,47.81
2017-07-21T11:58:02.488Z,48.59
2017-07-21T11:59:02.813Z,48.49
2017-07-21T12:00:02.818Z,49.92
2017-07-21T12:01:02.499Z,53.59
2017-07-21T12:02:02.836Z,53.59
2017-07-21T12:03:02.507Z,51.08
2017-07-21T12:04:02.829Z,49.92
2017-07-21T12:05:02.840Z,48.95
2017-07-21T12:06:02.523Z,48.57
2017-07-21T12:07:02.859Z,50.31
2017-07-21T12:08:02.865Z,53.57
2017-07-21T12:09:02.857Z,52.05
2017-07-21T12:10:02.864Z,52.44
2017-07-21T12:11:02.848Z,51.76
2017-07-21T12:12:02.899Z,50.52
2017-07-21T12:13:02.885Z,49.17
2017-07-21T12:14:02.867Z,49.75
2017-07-21T12:15:02.862Z,49.87
2017-07-21T12:16:02.865Z,50.74
2017-07-21T12:17:02.871Z,50.35
2017-07-21T12:18:02.552Z,49.97
2017-07-21T12:19:02.553Z,50.09
2017-07-21T12:20:02.878Z,50.19
2017-07-21T12:21:02.559Z,50.77
2017-07-21T12:22:02.892Z,47.57
2017-07-21T12:23:02.890Z,48.06
2017-07-21T12:24:02.571Z,48.54
2017-07-21T12:25:02.895Z,49.99
2017-07-21T12:26:02.917Z,50.67
2017-07-21T12:27:02.578Z,48.93
2017-07-21T12:28:02.902Z,48.03
2017-07-21T12:29:02.922Z,49.39
2017-07-21T12:30:02.915Z,50.16
2017-07-21T12:31:02.911Z,48.32
2017-07-21T12:32:02.913Z,49.87
2017-07-21T12:33:02.919Z,50.45
2017-07-21T12:34:02.921Z,50.26
2017-07-21T12:35:02.940Z,48.9
2017-07-21T12:36:02.932Z,48.81
2017-07-21T12:37:02.610Z,51.81
2017-07-21T12:38:02.933Z,52.58
2017-07-21T12:39:02.936Z,51.62
2017-07-21T12:40:02.635Z,52.87
2017-07-21T12:41:02.623Z,51.42
2017-07-21T12:42:02.947Z,52.58
2017-07-21T12:43:02.947Z,50.94
2017-07-21T12:44:02.630Z,49.77
2017-07-21T12:45:02.634Z,51.52
2017-07-21T12:46:02.957Z,51.52
2017-07-21T12:47:02.960Z,51.52
2017-07-21T12:48:02.963Z,51.81
2017-07-21T12:49:02.967Z,52.58
2017-07-21T12:50:02.998Z,50.35
2017-07-21T12:51:02.976Z,51.32
2017-07-21T12:52:02.695Z,52
2017-07-21T12:53:02.660Z,52.78
2017-07-21T12:54:02.983Z,50.16